Briefing drone pour Grenoble (LFLS)

Rechercher une autre localisation

Conditions de vol :


Nous sommes le : Jeudi 24 septembre 2020
Il est 22:30 UTC (00:30 LT)

Lever de soleil : 05:00 UTC (07:00 LT)
Coucher de soleil : 17:57 UTC (19:57 LT)

Météo

L'essentiel des conditions de vol

VIGILANCE MÉTÉO FRANCE - Isère (38)
Pas de vigilances particulieres
CARTE TEMSI
CARTES DES FRONTS
METAR de LFLS
LFLS 232200Z AUTO 19012KT 9999 -RA NSC 19/15 Q1011

Date d'émission: 23/09/2020
Heure d'émission: 22:00 UTC
Vent: 190° pour 12 KT (22 km/h)
Visibilité horizontale: > 10 km
Plafond : Pas de nuages significatifs (NSC)
Température: 19 °C
Point de rosée: 15 °C
Humidité: 78%
Pression (QNH): 1011 hPa
Conditions: Faible pluie
TAF de LFLS
LFLS 231859Z 2318/2415 CNL

Conditions prévues :

Heure d'émission : Bulletin éffectué le 23 à 18:00 UTC
Prévision : Valide du 23 a 18:00 UTC au 24 a 15:00 UTC
Nuages : à 0ft (0 m)
WEBCAM POUR GRENOBLE

Réglementation

Voler en sécurité

CARTES AERONAUTIQUE 1/500.000
CARTES VAC (LFLS)
SUP AIP




Chargement des AIP...
NOTAM (GRENOBLE + Terrain à proximité / FIR )




Chargement des NOTAMS...
CONTACT PREFECTURE 38


Avertissement : Les données mises à disposition sont indicatives. Oxygène Drone ne pourra être tenu responsable de dégâts causés aux biens et aux personnes.